Time;durP1;ratioP1;P1;durP2;ratioP2;P2;SDS_P1;SDS_P2;PMS_P1;PMS_P2;Temp;Humidity;BMP_temperature;BMP_pressure;BME280_temperature;BME280_humidity;BME280_pressure;Samples;Min_cycle;Max_cycle;Signal;HPM_P1;HPM_P2
2022/10/17 00:00:43;;;;;;;0.20;0.10;;;;;;;;;;5014310;28;20315;-86
2022/10/17 00:03:10;;;;;;;0.20;0.10;;;;;;;;;;5016348;28;20036;-86
2022/10/17 00:05:45;;;;;;;0.20;0.10;;;;;;;;;;5012092;28;20160;-86
2022/10/17 00:08:11;;;;;;;0.20;0.10;;;;;;;;;;5016738;28;20048;-86
2022/10/17 00:10:38;;;;;;;0.20;0.10;;;;;;;;;;5015842;28;20079;-85
2022/10/17 00:13:04;;;;;;;0.20;0.10;;;;;;;;;;5000542;28;20407;-86
2022/10/17 00:15:30;;;;;;;0.20;0.10;;;;;;;;;;5012074;28;20051;-86
2022/10/17 00:17:56;;;;;;;0.20;0.10;;;;;;;;;;5017159;28;21433;-85
2022/10/17 00:20:23;;;;;;;0.20;0.10;;;;;;;;;;5014481;28;20506;-86
2022/10/17 00:22:49;;;;;;;0.20;0.10;;;;;;;;;;5011294;28;20393;-86
2022/10/17 00:25:15;;;;;;;0.20;0.10;;;;;;;;;;5032400;28;20481;-86
2022/10/17 00:27:41;;;;;;;0.20;0.10;;;;;;;;;;5014601;28;20037;-86
2022/10/17 00:30:10;;;;;;;0.20;0.10;;;;;;;;;;5014309;28;20045;-86
2022/10/17 00:32:36;;;;;;;0.20;0.08;;;;;;;;;;5029049;28;20593;-86
2022/10/17 00:35:02;;;;;;;0.20;0.10;;;;;;;;;;5001040;28;20112;-86
2022/10/17 00:37:30;;;;;;;0.20;0.10;;;;;;;;;;5014623;28;20037;-86
2022/10/17 00:39:56;;;;;;;0.20;0.10;;;;;;;;;;5018000;28;20045;-87
2022/10/17 00:42:23;;;;;;;0.20;0.10;;;;;;;;;;5010944;28;20045;-87
2022/10/17 00:44:49;;;;;;;0.20;0.10;;;;;;;;;;4994823;28;20283;-87
2022/10/17 00:47:20;;;;;;;0.20;0.10;;;;;;;;;;5034700;28;20491;-86
2022/10/17 00:49:46;;;;;;;0.20;0.10;;;;;;;;;;5022048;28;20736;-86
2022/10/17 00:52:14;;;;;;;0.20;0.10;;;;;;;;;;5017830;28;20033;-87
2022/10/17 00:54:44;;;;;;;0.20;0.10;;;;;;;;;;5016395;28;20699;-86
2022/10/17 00:57:10;;;;;;;0.20;0.10;;;;;;;;;;5014660;28;20042;-87
2022/10/17 00:59:37;;;;;;;0.20;0.10;;;;;;;;;;5018839;28;20120;-85
2022/10/17 01:02:05;;;;;;;0.20;0.10;;;;;;;;;;5033062;28;20555;-85
2022/10/17 01:04:32;;;;;;;0.20;0.10;;;;;;;;;;5031458;28;20151;-85
2022/10/17 01:06:58;;;;;;;0.20;0.10;;;;;;;;;;5019895;28;20045;-86
2022/10/17 01:09:25;;;;;;;0.20;0.10;;;;;;;;;;5003596;28;20150;-87
2022/10/17 01:11:54;;;;;;;0.20;0.10;;;;;;;;;;5021588;28;20057;-86
2022/10/17 01:14:39;;;;;;;0.20;0.10;;;;;;;;;;5014976;28;20331;-87
2022/10/17 01:17:14;;;;;;;0.20;0.10;;;;;;;;;;5033425;28;20037;-86
2022/10/17 01:19:59;;;;;;;0.20;0.08;;;;;;;;;;5015306;28;20041;-85
2022/10/17 01:22:44;;;;;;;0.20;0.10;;;;;;;;;;5017185;28;20086;-86
2022/10/17 01:25:20;;;;;;;0.20;0.10;;;;;;;;;;5006445;28;20780;-85
2022/10/17 01:27:55;;;;;;;0.20;0.10;;;;;;;;;;5014713;28;20045;-85
2022/10/17 01:30:40;;;;;;;0.20;0.10;;;;;;;;;;5015499;28;20064;-86
2022/10/17 01:33:10;;;;;;;0.20;0.10;;;;;;;;;;5026789;28;20093;-85
2022/10/17 01:35:43;;;;;;;0.20;0.10;;;;;;;;;;5012481;28;20041;-88
2022/10/17 01:38:09;;;;;;;;;;;;;;;;;;5028213;28;20053;-87
2022/10/17 01:40:44;;;;;;;0.20;0.10;;;;;;;;;;5032625;28;19927;-86
2022/10/17 01:43:28;;;;;;;0.20;0.10;;;;;;;;;;5022055;28;20522;-86
2022/10/17 01:45:59;;;;;;;0.20;0.10;;;;;;;;;;5015455;28;20594;-86
2022/10/17 01:48:27;;;;;;;0.20;0.10;;;;;;;;;;5018351;28;20538;-86
2022/10/17 01:51:01;;;;;;;0.20;0.10;;;;;;;;;;5015904;28;20496;-87
2022/10/17 01:53:29;;;;;;;0.20;0.10;;;;;;;;;;5016443;28;20098;-86
2022/10/17 01:55:58;;;;;;;0.20;0.10;;;;;;;;;;5015775;28;20044;-87
2022/10/17 01:58:27;;;;;;;0.20;0.10;;;;;;;;;;5021005;28;20051;-86
2022/10/17 02:00:54;;;;;;;0.20;0.10;;;;;;;;;;5033740;28;20040;-85
2022/10/17 02:03:20;;;;;;;0.20;0.10;;;;;;;;;;5017562;28;20507;-85
2022/10/17 02:05:47;;;;;;;0.20;0.10;;;;;;;;;;5001460;28;20632;-85
2022/10/17 02:08:13;;;;;;;0.20;0.10;;;;;;;;;;5015661;28;20048;-86
2022/10/17 02:10:44;;;;;;;0.20;0.10;;;;;;;;;;5002584;28;20059;-86
2022/10/17 02:13:10;;;;;;;0.20;0.10;;;;;;;;;;5033685;28;20040;-85
2022/10/17 02:15:51;;;;;;;0.20;0.10;;;;;;;;;;5017943;28;20041;-86
2022/10/17 02:18:44;;;;;;;0.20;0.10;;;;;;;;;;5032876;28;21281;-86
2022/10/17 02:21:18;;;;;;;0.20;0.10;;;;;;;;;;5016113;28;20078;-86
2022/10/17 02:23:58;;;;;;;0.20;0.10;;;;;;;;;;5033808;28;20041;-86
2022/10/17 02:26:36;;;;;;;0.20;0.10;;;;;;;;;;5017430;28;20668;-86
2022/10/17 02:29:07;;;;;;;0.20;0.10;;;;;;;;;;5033506;28;20135;-86
2022/10/17 02:31:39;;;;;;;0.20;0.10;;;;;;;;;;5016125;28;20037;-86
2022/10/17 02:34:11;;;;;;;0.20;0.10;;;;;;;;;;5020556;28;20041;-86
2022/10/17 02:36:39;;;;;;;0.43;0.20;;;;;;;;;;5019285;28;20505;-85
2022/10/17 02:39:07;;;;;;;0.20;0.10;;;;;;;;;;5011243;28;20037;-85
2022/10/17 02:41:33;;;;;;;0.20;0.10;;;;;;;;;;5020674;28;20044;-86
2022/10/17 02:44:00;;;;;;;0.20;0.10;;;;;;;;;;5036765;28;20044;-87
2022/10/17 02:46:27;;;;;;;0.20;0.10;;;;;;;;;;5034628;28;20617;-85
2022/10/17 02:48:57;;;;;;;0.20;0.10;;;;;;;;;;5002188;28;20045;-85
2022/10/17 02:51:26;;;;;;;0.20;0.10;;;;;;;;;;5037367;28;20033;-86
2022/10/17 02:53:52;;;;;;;0.20;0.10;;;;;;;;;;5018861;28;20044;-86
2022/10/17 02:56:20;;;;;;;0.20;0.10;;;;;;;;;;5017196;28;20029;-85
2022/10/17 02:58:48;;;;;;;0.20;0.10;;;;;;;;;;5016080;28;20033;-86
2022/10/17 03:01:14;;;;;;;0.20;0.10;;;;;;;;;;5015783;28;20073;-87
2022/10/17 03:03:40;;;;;;;0.20;0.10;;;;;;;;;;4999780;28;20391;-85
2022/10/17 03:06:06;;;;;;;0.20;0.10;;;;;;;;;;5000619;28;20666;-85
2022/10/17 03:08:32;;;;;;;0.20;0.10;;;;;;;;;;5029789;28;20033;-86
2022/10/17 03:10:58;;;;;;;0.20;0.10;;;;;;;;;;5034784;28;20049;-87
2022/10/17 03:13:24;;;;;;;0.20;0.10;;;;;;;;;;5033919;28;20052;-87
2022/10/17 03:15:50;;;;;;;0.20;0.10;;;;;;;;;;5000578;28;20135;-86
2022/10/17 03:18:16;;;;;;;0.20;0.10;;;;;;;;;;5003721;28;20143;-87
2022/10/17 03:20:42;;;;;;;0.20;0.10;;;;;;;;;;5000539;28;20114;-86
2022/10/17 03:23:08;;;;;;;0.20;0.10;;;;;;;;;;5015055;28;20057;-86
2022/10/17 03:25:34;;;;;;;0.20;0.20;;;;;;;;;;5019223;28;21050;-86
2022/10/17 03:28:01;;;;;;;0.20;0.10;;;;;;;;;;5032039;28;20381;-86
2022/10/17 03:30:27;;;;;;;0.20;0.10;;;;;;;;;;5016645;28;20033;-86
2022/10/17 03:32:53;;;;;;;0.20;0.10;;;;;;;;;;4999805;28;20037;-87
2022/10/17 03:35:19;;;;;;;0.20;0.10;;;;;;;;;;5014623;28;20368;-86
2022/10/17 03:37:45;;;;;;;0.20;0.10;;;;;;;;;;5034405;28;20128;-86
2022/10/17 03:40:12;;;;;;;0.20;0.10;;;;;;;;;;5002470;28;20247;-86
2022/10/17 03:42:38;;;;;;;0.20;0.10;;;;;;;;;;4998515;28;20086;-86
2022/10/17 03:45:04;;;;;;;0.20;0.10;;;;;;;;;;4995894;28;20614;-86
2022/10/17 03:47:30;;;;;;;0.20;0.10;;;;;;;;;;5020114;28;20415;-85
2022/10/17 03:49:56;;;;;;;0.20;0.10;;;;;;;;;;5010333;28;20118;-86
2022/10/17 03:52:22;;;;;;;0.20;0.10;;;;;;;;;;5017319;28;20125;-86
2022/10/17 03:54:49;;;;;;;0.20;0.10;;;;;;;;;;5014357;28;20248;-85
2022/10/17 03:57:16;;;;;;;0.20;0.10;;;;;;;;;;5014345;28;20048;-85
2022/10/17 03:59:42;;;;;;;0.20;0.10;;;;;;;;;;5016789;28;20398;-86
2022/10/17 04:02:08;;;;;;;0.20;0.10;;;;;;;;;;5003838;28;20420;-86
2022/10/17 04:04:34;;;;;;;0.20;0.10;;;;;;;;;;5031024;28;20102;-86
2022/10/17 04:07:03;;;;;;;0.25;0.20;;;;;;;;;;5012713;28;20491;-84
2022/10/17 04:09:29;;;;;;;0.20;0.10;;;;;;;;;;5001797;28;20037;-86
2022/10/17 04:11:55;;;;;;;0.20;0.10;;;;;;;;;;5010842;28;20098;-86
2022/10/17 04:14:21;;;;;;;0.20;0.10;;;;;;;;;;5017158;28;20041;-86
2022/10/17 04:16:47;;;;;;;0.20;0.10;;;;;;;;;;5013099;28;20049;-85
2022/10/17 04:19:13;;;;;;;0.20;0.10;;;;;;;;;;5030486;28;20052;-85
2022/10/17 04:21:39;;;;;;;0.20;0.10;;;;;;;;;;5026483;28;20514;-86
2022/10/17 04:24:05;;;;;;;0.20;0.10;;;;;;;;;;5034001;28;20053;-86
2022/10/17 04:26:31;;;;;;;0.20;0.10;;;;;;;;;;5030783;28;20045;-86
2022/10/17 04:28:57;;;;;;;0.20;0.10;;;;;;;;;;4999893;28;20041;-87
2022/10/17 04:31:23;;;;;;;0.20;0.10;;;;;;;;;;4990997;28;20048;-86
2022/10/17 04:33:50;;;;;;;0.20;0.10;;;;;;;;;;5012791;28;20124;-86
2022/10/17 04:36:18;;;;;;;0.20;0.10;;;;;;;;;;4998839;28;20037;-86
2022/10/17 04:38:44;;;;;;;0.20;0.10;;;;;;;;;;5017440;28;20064;-85
2022/10/17 04:41:14;;;;;;;0.20;0.10;;;;;;;;;;5009096;28;20774;-87
2022/10/17 04:43:40;;;;;;;0.20;0.10;;;;;;;;;;5008885;28;20044;-87
2022/10/17 04:46:08;;;;;;;0.20;0.10;;;;;;;;;;5031185;28;20068;-86
2022/10/17 04:48:34;;;;;;;0.20;0.10;;;;;;;;;;5015449;28;20037;-86
2022/10/17 04:51:02;;;;;;;0.20;0.10;;;;;;;;;;5029469;28;20033;-86
2022/10/17 04:53:30;;;;;;;0.20;0.10;;;;;;;;;;5011736;28;20045;-86
2022/10/17 04:55:56;;;;;;;0.20;0.10;;;;;;;;;;5012176;28;20047;-81
2022/10/17 04:58:22;;;;;;;0.20;0.08;;;;;;;;;;5011229;28;20060;-86
2022/10/17 05:00:48;;;;;;;0.20;0.10;;;;;;;;;;5032220;22;20048;-88
2022/10/17 05:03:14;;;;;;;0.20;0.10;;;;;;;;;;5032499;28;20244;-84
2022/10/17 05:05:41;;;;;;;0.20;0.10;;;;;;;;;;5031814;28;20033;-85
2022/10/17 05:08:08;;;;;;;0.20;0.10;;;;;;;;;;5050545;28;20072;-85
2022/10/17 05:10:38;;;;;;;0.20;0.10;;;;;;;;;;5051905;28;20039;-84
2022/10/17 05:13:04;;;;;;;0.20;0.10;;;;;;;;;;5028721;28;20464;-83
2022/10/17 05:15:30;;;;;;;0.20;0.10;;;;;;;;;;5016541;28;20051;-86
2022/10/17 05:17:57;;;;;;;0.20;0.10;;;;;;;;;;5046247;28;20037;-83
2022/10/17 05:20:23;;;;;;;0.20;0.10;;;;;;;;;;5047366;28;20404;-82
2022/10/17 05:22:49;;;;;;;0.20;0.10;;;;;;;;;;5030586;28;20051;-87
2022/10/17 05:25:15;;;;;;;0.20;0.10;;;;;;;;;;5048259;28;20037;-86
2022/10/17 05:28:17;;;;;;;0.20;0.10;;;;;;;;;;5050933;28;20526;-87
2022/10/17 05:30:43;;;;;;;0.20;0.20;;;;;;;;;;5036864;28;20040;-86
2022/10/17 05:33:12;;;;;;;0.22;0.15;;;;;;;;;;5029898;28;20048;-87
2022/10/17 05:35:50;;;;;;;0.20;0.10;;;;;;;;;;5037796;28;20070;-87
2022/10/17 05:38:16;;;;;;;0.20;0.10;;;;;;;;;;5026446;28;20036;-88
2022/10/17 05:40:44;;;;;;;0.20;0.03;;;;;;;;;;5030537;28;20051;-87
2022/10/17 05:43:10;;;;;;;0.20;0.10;;;;;;;;;;5050638;28;20040;-85
2022/10/17 05:45:36;;;;;;;0.20;0.10;;;;;;;;;;5014928;28;20043;-88
2022/10/17 05:48:02;;;;;;;0.20;0.10;;;;;;;;;;5036558;28;20051;-85
2022/10/17 05:50:28;;;;;;;0.20;0.10;;;;;;;;;;5027365;28;20041;-84
2022/10/17 05:53:02;;;;;;;0.20;0.10;;;;;;;;;;5035002;28;20079;-86
2022/10/17 05:55:28;;;;;;;0.20;0.10;;;;;;;;;;5047129;28;20052;-86
2022/10/17 05:58:06;;;;;;;0.20;0.10;;;;;;;;;;5021662;28;20045;-87
2022/10/17 06:00:38;;;;;;;0.20;0.15;;;;;;;;;;5031319;28;20388;-88
2022/10/17 06:03:12;;;;;;;0.65;0.55;;;;;;;;;;5048992;28;20048;-88
2022/10/17 06:05:44;;;;;;;0.20;0.10;;;;;;;;;;5038146;28;20041;-86
2022/10/17 06:08:31;;;;;;;0.20;0.10;;;;;;;;;;5025512;28;20052;-87
2022/10/17 06:14:14;;;;;;;;;;;;;;;;;;;;;
2022/10/17 06:17:34;;;;;;;;;;;;;;;;;;;;;
2022/10/17 06:20:07;;;;;;;0.20;0.10;;;;;;;;;;5033599;28;20044;-87
2022/10/17 06:22:33;;;;;;;0.20;0.10;;;;;;;;;;5020411;28;20067;-88
2022/10/17 06:24:59;;;;;;;0.22;0.20;;;;;;;;;;5025951;28;20068;-86
2022/10/17 06:27:26;;;;;;;0.20;0.10;;;;;;;;;;4981086;28;20050;-86
2022/10/17 06:30:21;;;;;;;0.20;0.10;;;;;;;;;;4965296;28;20046;-88
2022/10/17 06:32:51;;;;;;;0.20;0.10;;;;;;;;;;4924086;28;22532;-88
2022/10/17 06:35:27;;;;;;;0.20;0.10;;;;;;;;;;4982428;28;20169;-88
2022/10/17 06:37:59;;;;;;;0.20;0.20;;;;;;;;;;4961946;28;20060;-86
2022/10/17 06:40:25;;;;;;;0.20;0.10;;;;;;;;;;4966496;28;23207;-85
2022/10/17 06:42:51;;;;;;;0.20;0.20;;;;;;;;;;4983758;28;20304;-86
2022/10/17 06:45:17;;;;;;;0.20;0.10;;;;;;;;;;4966924;28;20096;-86
2022/10/17 06:47:43;;;;;;;0.20;0.10;;;;;;;;;;4992827;28;20419;-86
2022/10/17 06:50:09;;;;;;;0.20;0.10;;;;;;;;;;4986860;28;20038;-87
2022/10/17 06:52:36;;;;;;;0.20;0.10;;;;;;;;;;4971550;28;20052;-85
2022/10/17 06:55:05;;;;;;;0.20;0.20;;;;;;;;;;5003361;28;20140;-86
2022/10/17 06:57:31;;;;;;;0.20;0.10;;;;;;;;;;5003922;28;20500;-86
2022/10/17 07:00:02;;;;;;;0.20;0.10;;;;;;;;;;5033918;28;20044;-88
2022/10/17 07:02:41;;;;;;;0.20;0.10;;;;;;;;;;5039506;28;20102;-88
2022/10/17 07:05:08;;;;;;;0.20;0.10;;;;;;;;;;5034920;28;20099;-85
2022/10/17 07:07:42;;;;;;;0.20;0.10;;;;;;;;;;5024542;28;20041;-88
2022/10/17 07:10:11;;;;;;;0.20;0.10;;;;;;;;;;5053096;28;20132;-86
2022/10/17 07:12:40;;;;;;;0.20;0.10;;;;;;;;;;5040952;28;20141;-86
2022/10/17 07:15:27;;;;;;;0.30;0.20;;;;;;;;;;5042746;28;20445;-87
2022/10/17 07:21:13;;;;;;;0.20;0.10;;;;;;;;;;5050068;28;20732;-88
2022/10/17 07:23:56;;;;;;;0.20;0.10;;;;;;;;;;5042589;28;20070;-89
2022/10/17 07:26:28;;;;;;;0.20;0.10;;;;;;;;;;5025627;28;20072;-86
2022/10/17 07:29:06;;;;;;;0.20;0.10;;;;;;;;;;5040289;28;20059;-87
2022/10/17 07:34:37;;;;;;;0.20;0.10;;;;;;;;;;5048283;28;20056;-87
2022/10/17 07:37:08;;;;;;;0.50;0.40;;;;;;;;;;5045050;28;20052;-85
2022/10/17 07:39:34;;;;;;;0.20;0.10;;;;;;;;;;5038590;28;20590;-87
2022/10/17 07:45:01;;;;;;;0.20;0.10;;;;;;;;;;5043366;28;20044;-88
2022/10/17 07:47:37;;;;;;;0.20;0.20;;;;;;;;;;5029702;28;20048;-86
2022/10/17 07:50:09;;;;;;;0.20;0.10;;;;;;;;;;5014380;28;20052;-85
2022/10/17 07:53:07;;;;;;;0.22;0.20;;;;;;;;;;5026099;28;20120;-85
2022/10/17 07:55:40;;;;;;;0.20;0.10;;;;;;;;;;5039165;28;20049;-86
2022/10/17 07:58:15;;;;;;;0.20;0.10;;;;;;;;;;5058385;28;20048;-85
2022/10/17 08:00:50;;;;;;;0.20;0.10;;;;;;;;;;5054528;28;20105;-85
2022/10/17 08:03:24;;;;;;;0.20;0.20;;;;;;;;;;5039335;28;20047;-86
2022/10/17 08:06:02;;;;;;;0.20;0.10;;;;;;;;;;5027923;28;20721;-84
2022/10/17 08:08:37;;;;;;;0.20;0.10;;;;;;;;;;5011286;28;20048;-86
2022/10/17 08:14:19;;;;;;;0.20;0.10;;;;;;;;;;5029712;28;20036;-88
2022/10/17 08:17:01;;;;;;;;;;;;;;;;;;;;;
2022/10/17 08:19:41;;;;;;;0.30;0.30;;;;;;;;;;5060760;28;20415;-85
2022/10/17 08:22:07;;;;;;;0.20;0.10;;;;;;;;;;5041489;28;20048;-86
2022/10/17 08:24:33;;;;;;;0.20;0.10;;;;;;;;;;5043644;28;20036;-85
2022/10/17 08:27:30;;;;;;;0.20;0.10;;;;;;;;;;5061239;28;20074;-86
2022/10/17 08:30:29;;;;;;;0.20;0.10;;;;;;;;;;5060910;28;22561;-88
2022/10/17 08:32:59;;;;;;;0.20;0.20;;;;;;;;;;5061337;28;20494;-87
2022/10/17 08:35:28;;;;;;;0.30;0.28;;;;;;;;;;5045085;28;20048;-83
2022/10/17 08:37:54;;;;;;;0.20;0.15;;;;;;;;;;5062395;28;20041;-86
2022/10/17 08:40:48;;;;;;;0.20;0.10;;;;;;;;;;5046079;28;20044;-88
2022/10/17 08:43:33;;;;;;;0.20;0.10;;;;;;;;;;5041012;28;20488;-87
2022/10/17 08:49:45;;;;;;;0.30;0.10;;;;;;;;;;5050038;28;20041;-84
2022/10/17 08:52:41;;;;;;;0.20;0.20;;;;;;;;;;5026392;28;20044;-84
2022/10/17 08:55:37;;;;;;;0.20;0.10;;;;;;;;;;5035554;28;20184;-86
2022/10/17 08:58:18;;;;;;;0.20;0.10;;;;;;;;;;5046855;28;20040;-86
2022/10/17 09:01:12;;;;;;;0.35;0.20;;;;;;;;;;5048478;28;20070;-85
2022/10/17 09:06:39;;;;;;;0.20;0.10;;;;;;;;;;5051754;28;20120;-86
2022/10/17 09:09:24;;;;;;;0.35;0.35;;;;;;;;;;5062053;28;20312;-84
2022/10/17 09:12:09;;;;;;;0.20;0.10;;;;;;;;;;5040079;28;20862;-85
2022/10/17 09:14:53;;;;;;;0.20;0.10;;;;;;;;;;5033890;28;20508;-86
2022/10/17 09:17:41;;;;;;;0.60;0.60;;;;;;;;;;5038542;28;20538;-82
2022/10/17 09:20:20;;;;;;;0.20;0.10;;;;;;;;;;5051509;28;20116;-84
2022/10/17 09:22:52;;;;;;;0.20;0.10;;;;;;;;;;5040291;28;20616;-85
2022/10/17 09:25:20;;;;;;;1.45;0.43;;;;;;;;;;5035168;28;20036;-83
2022/10/17 09:27:46;;;;;;;0.20;0.10;;;;;;;;;;5052917;28;20032;-83
2022/10/17 09:30:19;;;;;;;0.20;0.10;;;;;;;;;;5035537;28;20032;-82
2022/10/17 09:32:46;;;;;;;0.50;0.30;;;;;;;;;;5038847;28;20101;-84
2022/10/17 09:35:13;;;;;;;0.20;0.20;;;;;;;;;;5035138;28;20115;-83
2022/10/17 09:37:40;;;;;;;0.20;0.10;;;;;;;;;;5055532;28;20504;-81
2022/10/17 09:40:07;;;;;;;0.40;0.40;;;;;;;;;;5024421;28;20548;-85
2022/10/17 09:42:34;;;;;;;0.20;0.10;;;;;;;;;;5021671;28;20052;-85
2022/10/17 09:45:00;;;;;;;0.20;0.10;;;;;;;;;;5041563;28;20132;-81
2022/10/17 09:47:42;;;;;;;0.20;0.10;;;;;;;;;;5036707;28;20189;-84
2022/10/17 09:50:31;;;;;;;0.30;0.20;;;;;;;;;;5051574;28;20278;-84
2022/10/17 09:53:01;;;;;;;0.57;0.20;;;;;;;;;;5034891;28;20047;-82
2022/10/17 09:55:36;;;;;;;0.47;0.22;;;;;;;;;;5037487;28;20077;-86
2022/10/17 09:58:03;;;;;;;4.18;0.50;;;;;;;;;;5049550;28;20396;-84
2022/10/17 10:00:31;;;;;;;0.20;0.10;;;;;;;;;;5036016;28;20402;-84
2022/10/17 10:03:15;;;;;;;0.20;0.10;;;;;;;;;;5051383;28;20073;-86
2022/10/17 10:05:41;;;;;;;0.20;0.10;;;;;;;;;;5038523;28;20036;-86
2022/10/17 10:08:15;;;;;;;0.20;0.20;;;;;;;;;;5039866;28;20040;-84
2022/10/17 10:10:42;;;;;;;0.20;0.10;;;;;;;;;;5056850;28;20129;-85
2022/10/17 10:13:14;;;;;;;0.20;0.10;;;;;;;;;;5035233;28;20044;-85
2022/10/17 10:15:50;;;;;;;0.20;0.10;;;;;;;;;;5056481;28;20552;-87
2022/10/17 10:18:30;;;;;;;0.20;0.10;;;;;;;;;;5042776;28;20044;-85
2022/10/17 10:21:02;;;;;;;0.30;0.30;;;;;;;;;;5040172;28;20543;-85
2022/10/17 10:23:28;;;;;;;0.30;0.25;;;;;;;;;;5058376;28;20392;-87
2022/10/17 10:25:57;;;;;;;0.20;0.10;;;;;;;;;;5028108;28;20032;-87
2022/10/17 10:28:36;;;;;;;0.20;0.10;;;;;;;;;;5058241;28;20075;-85
2022/10/17 10:31:03;;;;;;;0.20;0.10;;;;;;;;;;5023013;28;20357;-84
2022/10/17 10:33:30;;;;;;;0.20;0.10;;;;;;;;;;5038773;28;20068;-84
2022/10/17 10:35:57;;;;;;;0.20;0.10;;;;;;;;;;5038654;28;20142;-83
2022/10/17 10:38:23;;;;;;;0.20;0.10;;;;;;;;;;5053197;28;20378;-83
2022/10/17 10:40:51;;;;;;;0.20;0.10;;;;;;;;;;5044860;28;20045;-81
2022/10/17 10:43:36;;;;;;;0.20;0.10;;;;;;;;;;5044025;28;20039;-83
2022/10/17 10:46:15;;;;;;;0.20;0.10;;;;;;;;;;5035748;28;20134;-83
2022/10/17 10:48:49;;;;;;;0.20;0.10;;;;;;;;;;5041869;28;20379;-86
2022/10/17 10:51:21;;;;;;;0.20;0.10;;;;;;;;;;5056329;28;20033;-84
2022/10/17 10:53:52;;;;;;;0.20;0.10;;;;;;;;;;5055798;28;20087;-86
2022/10/17 10:56:24;;;;;;;0.20;0.10;;;;;;;;;;5042887;28;20036;-89
2022/10/17 10:59:09;;;;;;;0.20;0.10;;;;;;;;;;5039367;28;20132;-85
2022/10/17 11:01:51;;;;;;;0.20;0.10;;;;;;;;;;5050603;22;20053;-85
2022/10/17 11:04:29;;;;;;;0.20;0.20;;;;;;;;;;5028475;28;20038;-86
2022/10/17 11:07:05;;;;;;;0.20;0.10;;;;;;;;;;5027365;28;20046;-86
2022/10/17 11:09:31;;;;;;;0.20;0.10;;;;;;;;;;5006838;28;20512;-88
2022/10/17 11:12:05;;;;;;;0.35;0.32;;;;;;;;;;4999544;28;20049;-86
2022/10/17 11:14:39;;;;;;;0.20;0.10;;;;;;;;;;5018223;28;20040;-86
2022/10/17 11:17:12;;;;;;;0.20;0.10;;;;;;;;;;5017254;28;20033;-86
2022/10/17 11:19:39;;;;;;;;;;;;;;;;;;5021034;28;20044;-88
2022/10/17 11:22:15;;;;;;;0.20;0.10;;;;;;;;;;5023315;28;19921;-86
2022/10/17 11:24:55;;;;;;;0.20;0.10;;;;;;;;;;5019309;28;20597;-85
2022/10/17 11:27:22;;;;;;;0.20;0.10;;;;;;;;;;4999767;28;20515;-83
2022/10/17 11:29:48;;;;;;;0.20;0.10;;;;;;;;;;4984711;28;20309;-88
2022/10/17 11:32:34;;;;;;;0.20;0.10;;;;;;;;;;4987615;28;20487;-88
2022/10/17 11:35:03;;;;;;;0.20;0.10;;;;;;;;;;5020022;28;20041;-85
2022/10/17 11:37:32;;;;;;;0.30;0.20;;;;;;;;;;5021680;28;20556;-84
2022/10/17 11:40:01;;;;;;;0.20;0.10;;;;;;;;;;4997154;28;20508;-90
2022/10/17 11:42:33;;;;;;;0.20;0.20;;;;;;;;;;5019731;28;20052;-87
2022/10/17 11:45:05;;;;;;;0.20;0.10;;;;;;;;;;5003814;28;20037;-89
2022/10/17 11:47:31;;;;;;;0.20;0.10;;;;;;;;;;5003710;28;20045;-85
2022/10/17 11:50:16;;;;;;;0.20;0.10;;;;;;;;;;5003284;28;20049;-86
2022/10/17 11:53:03;;;;;;;0.20;0.10;;;;;;;;;;5007492;28;20033;-86
2022/10/17 11:55:33;;;;;;;0.20;0.10;;;;;;;;;;5021550;28;20042;-87
2022/10/17 11:58:14;;;;;;;8.70;0.55;;;;;;;;;;5002553;28;20092;-86
2022/10/17 12:00:56;;;;;;;0.20;0.10;;;;;;;;;;4996896;28;20123;-88
2022/10/17 12:03:28;;;;;;;0.20;0.10;;;;;;;;;;5019389;28;20072;-87
2022/10/17 12:06:03;;;;;;;0.20;0.10;;;;;;;;;;5004678;28;20072;-87
2022/10/17 12:08:29;;;;;;;0.20;0.10;;;;;;;;;;5001055;28;20049;-90
2022/10/17 12:10:55;;;;;;;0.20;0.10;;;;;;;;;;5000966;28;20037;-89
2022/10/17 12:13:27;;;;;;;0.20;0.10;;;;;;;;;;5005263;28;20029;-87
2022/10/17 12:15:57;;;;;;;0.20;0.20;;;;;;;;;;5004584;28;20041;-86
2022/10/17 12:18:26;;;;;;;0.20;0.10;;;;;;;;;;5002695;28;20636;-87
2022/10/17 12:20:56;;;;;;;0.20;0.10;;;;;;;;;;5018662;28;20045;-87
2022/10/17 12:23:27;;;;;;;0.20;0.10;;;;;;;;;;5003999;28;20071;-86
2022/10/17 12:25:56;;;;;;;0.20;0.10;;;;;;;;;;5002953;28;20037;-90
2022/10/17 12:28:25;;;;;;;0.40;0.10;;;;;;;;;;5017086;28;20076;-86
2022/10/17 12:30:54;;;;;;;1.05;0.95;;;;;;;;;;5018439;28;20041;-88
2022/10/17 12:33:22;;;;;;;0.20;0.10;;;;;;;;;;4996477;28;20037;-86
2022/10/17 12:35:50;;;;;;;0.20;0.10;;;;;;;;;;4991496;28;20076;-88
2022/10/17 12:38:22;;;;;;;0.20;0.10;;;;;;;;;;5000815;28;20042;-88
2022/10/17 12:40:49;;;;;;;0.30;0.20;;;;;;;;;;5004539;28;21010;-88
2022/10/17 12:43:15;;;;;;;0.20;0.10;;;;;;;;;;4996372;28;20041;-90
2022/10/17 12:45:48;;;;;;;0.20;0.10;;;;;;;;;;5002322;28;20112;-89
2022/10/17 12:48:40;;;;;;;0.20;0.10;;;;;;;;;;5013858;28;20049;-88
2022/10/17 12:51:08;;;;;;;0.20;0.20;;;;;;;;;;5003953;28;20076;-89
2022/10/17 12:53:41;;;;;;;0.20;0.10;;;;;;;;;;5002047;28;20312;-89
2022/10/17 12:56:07;;;;;;;0.20;0.10;;;;;;;;;;5016724;28;20073;-87
2022/10/17 12:58:34;;;;;;;0.20;0.10;;;;;;;;;;5017582;28;20045;-88
2022/10/17 13:01:01;;;;;;;0.20;0.10;;;;;;;;;;5015605;28;20037;-91
2022/10/17 13:03:32;;;;;;;0.20;0.10;;;;;;;;;;5003451;28;20124;-90
2022/10/17 13:06:06;;;;;;;0.20;0.10;;;;;;;;;;5015353;28;20744;-89
2022/10/17 13:08:42;;;;;;;0.20;0.20;;;;;;;;;;5015548;28;20108;-90
2022/10/17 13:11:08;;;;;;;0.20;0.10;;;;;;;;;;5016076;28;20034;-90
2022/10/17 13:13:38;;;;;;;0.20;0.10;;;;;;;;;;4988550;28;20088;-87
2022/10/17 13:16:04;;;;;;;0.20;0.10;;;;;;;;;;4997972;28;20208;-87
2022/10/17 13:18:30;;;;;;;0.20;0.10;;;;;;;;;;5018259;28;20127;-87
2022/10/17 13:21:04;;;;;;;0.20;0.10;;;;;;;;;;5000366;28;20064;-89
2022/10/17 13:23:40;;;;;;;0.20;0.10;;;;;;;;;;4999683;28;20115;-89
2022/10/17 13:26:07;;;;;;;0.20;0.10;;;;;;;;;;5017838;28;20029;-87
2022/10/17 13:28:33;;;;;;;0.20;0.10;;;;;;;;;;5017465;28;20044;-89
2022/10/17 13:30:59;;;;;;;0.20;0.10;;;;;;;;;;5001573;28;20629;-89
2022/10/17 13:33:31;;;;;;;0.20;0.10;;;;;;;;;;5001956;28;20079;-88
2022/10/17 13:35:58;;;;;;;0.20;0.10;;;;;;;;;;5019134;28;20049;-88
2022/10/17 13:38:31;;;;;;;0.20;0.20;;;;;;;;;;4983588;28;20685;-89
2022/10/17 13:40:57;;;;;;;0.20;0.10;;;;;;;;;;5017607;28;20045;-90
2022/10/17 13:43:29;;;;;;;0.30;0.20;;;;;;;;;;5001878;28;20095;-88
2022/10/17 13:46:22;;;;;;;;;;;;;;;;;;;;;
2022/10/17 13:48:48;;;;;;;0.20;0.10;;;;;;;;;;5015790;28;20485;-86
2022/10/17 13:51:14;;;;;;;0.30;0.25;;;;;;;;;;4999641;28;20037;-85
2022/10/17 13:53:42;;;;;;;0.20;0.10;;;;;;;;;;5000000;28;20302;-87
2022/10/17 13:56:12;;;;;;;0.43;0.30;;;;;;;;;;4985970;28;20488;-91
2022/10/17 13:58:49;;;;;;;0.20;0.13;;;;;;;;;;5017286;28;20059;-86
2022/10/17 14:01:15;;;;;;;0.20;0.10;;;;;;;;;;5017341;28;20128;-89
2022/10/17 14:03:42;;;;;;;0.20;0.10;;;;;;;;;;4985824;28;20048;-87
2022/10/17 14:06:08;;;;;;;0.30;0.30;;;;;;;;;;5020216;28;20159;-88
2022/10/17 14:08:35;;;;;;;0.20;0.10;;;;;;;;;;5017694;28;20111;-85
2022/10/17 14:11:01;;;;;;;0.20;0.10;;;;;;;;;;4996480;28;20034;-90
2022/10/17 14:13:32;;;;;;;0.20;0.10;;;;;;;;;;5000440;28;20234;-86
2022/10/17 14:16:00;;;;;;;0.20;0.10;;;;;;;;;;5017524;28;20401;-87
2022/10/17 14:18:35;;;;;;;0.20;0.10;;;;;;;;;;5016747;28;20431;-91
2022/10/17 14:21:01;;;;;;;0.20;0.10;;;;;;;;;;5017826;28;20045;-89
2022/10/17 14:23:27;;;;;;;0.20;0.10;;;;;;;;;;5017487;28;20044;-86
2022/10/17 14:26:04;;;;;;;0.20;0.10;;;;;;;;;;4994861;28;20310;-88
2022/10/17 14:28:30;;;;;;;0.20;0.10;;;;;;;;;;5016100;28;20049;-87
2022/10/17 14:31:08;;;;;;;0.20;0.10;;;;;;;;;;4998859;28;20155;-89
2022/10/17 14:33:35;;;;;;;0.20;0.10;;;;;;;;;;5014298;28;20034;-90
2022/10/17 14:36:02;;;;;;;0.20;0.10;;;;;;;;;;4999045;28;20037;-88
2022/10/17 14:38:29;;;;;;;0.20;0.10;;;;;;;;;;5000864;28;20076;-88
2022/10/17 14:41:03;;;;;;;0.20;0.10;;;;;;;;;;4997062;28;20148;-85
2022/10/17 14:43:30;;;;;;;0.20;0.10;;;;;;;;;;5015713;28;20120;-87
2022/10/17 14:45:57;;;;;;;0.20;0.10;;;;;;;;;;4998317;28;20103;-88
2022/10/17 14:48:24;;;;;;;0.20;0.10;;;;;;;;;;5001717;28;20091;-88
2022/10/17 14:51:09;;;;;;;0.20;0.10;;;;;;;;;;5020252;28;20037;-89
2022/10/17 14:53:36;;;;;;;0.20;0.10;;;;;;;;;;5017206;28;20246;-89
2022/10/17 14:56:04;;;;;;;0.20;0.10;;;;;;;;;;5003750;28;20037;-88
2022/10/17 14:58:31;;;;;;;0.20;0.10;;;;;;;;;;5002466;28;20068;-85
2022/10/17 15:00:58;;;;;;;0.20;0.10;;;;;;;;;;5020631;28;20049;-84
2022/10/17 15:03:25;;;;;;;0.20;0.00;;;;;;;;;;5009768;28;20044;-86
2022/10/17 15:05:51;;;;;;;0.20;0.00;;;;;;;;;;5021258;28;20045;-85
2022/10/17 15:08:18;;;;;;;0.20;0.10;;;;;;;;;;5004019;28;20037;-88
2022/10/17 15:10:46;;;;;;;0.20;0.10;;;;;;;;;;5020225;28;20087;-89
2022/10/17 15:13:13;;;;;;;0.20;0.10;;;;;;;;;;5018237;28;20037;-89
2022/10/17 15:15:40;;;;;;;0.20;0.10;;;;;;;;;;5013288;28;20368;-91
2022/10/17 15:18:06;;;;;;;0.20;0.10;;;;;;;;;;5003782;28;20041;-88
2022/10/17 15:20:32;;;;;;;0.20;0.10;;;;;;;;;;5002790;28;20037;-88
2022/10/17 15:23:00;;;;;;;0.20;0.10;;;;;;;;;;5021034;28;20045;-88
2022/10/17 15:25:26;;;;;;;0.20;0.10;;;;;;;;;;5001459;28;20042;-89
2022/10/17 15:27:53;;;;;;;0.20;0.10;;;;;;;;;;4999906;28;20053;-88
2022/10/17 15:30:21;;;;;;;0.20;0.10;;;;;;;;;;5003539;28;20133;-89
2022/10/17 15:32:48;;;;;;;0.20;0.10;;;;;;;;;;5032628;28;20033;-88